Lake George, Minnesota
Current Conditions -  °F | °C
As of 6:12 AM on Monday 24 Nov 2014 (Local Time) from KBJI Reporting Station
Light Snow Light Snow  
Wind Chill: -2°   Ceiling: 1500
Heat Index: 14°   Visibility: 4mi
Dew Point: 10°   Wind: 15mph
Humidity: 86%   Direction: 310°NW
Pressure: 29.46"   Gusts: NA
Location:  47.2°N, 94.99°W
Report Text: KBJI 241212Z AUTO 31013KT 4SM -SN OVC015 M10/M12 A2946 RMK AO2 T11011120
Loading
Personal Weather Stations






























Interactive Weather Map New forecast layout! Learn more

10-Day Weather Forecast

Advertisements
Track Severe Weather on mobile